Time;durP1;ratioP1;P1;durP2;ratioP2;P2;SDS_P1;SDS_P2;PMS_P1;PMS_P2;Temp;Humidity;BMP_temperature;BMP_pressure;BME280_temperature;BME280_humidity;BME280_pressure;Samples;Min_cycle;Max_cycle;Signal;HPM_P1;HPM_P2
2023/09/06 00:05:02;;;;;;;2.35;1.08;;;;;;;23.21;49.22;101760.03;16125011;19;129637;-65
2023/09/06 00:10:25;;;;;;;3.65;1.30;;;;;;;23.20;49.29;101763.94;16122553;19;131011;-65
2023/09/06 00:15:48;;;;;;;5.20;1.08;;;;;;;23.19;49.88;101760.31;16124678;19;129557;-65
2023/09/06 00:21:10;;;;;;;2.92;1.27;;;;;;;23.18;49.10;101767.00;16121114;19;129747;-65
2023/09/06 00:26:32;;;;;;;3.42;1.33;;;;;;;23.18;49.17;101757.75;16116023;19;130314;-65
2023/09/06 00:31:55;;;;;;;3.58;1.17;;;;;;;23.16;49.53;101749.66;16119450;19;132806;-68
2023/09/06 00:37:17;;;;;;;1.50;1.20;;;;;;;23.16;49.81;101754.38;16117458;19;129911;-65
2023/09/06 00:42:39;;;;;;;2.17;1.02;;;;;;;23.15;49.60;101756.34;16116652;19;129831;-64
2023/09/06 00:48:05;;;;;;;1.85;1.10;;;;;;;23.14;49.39;101760.22;16118295;19;129904;-67
2023/09/06 00:53:27;;;;;;;2.10;0.90;;;;;;;23.14;49.54;101759.41;16114402;19;131078;-64
2023/09/06 00:58:49;;;;;;;2.80;1.30;;;;;;;23.13;49.49;101766.06;16118837;19;129792;-64
2023/09/06 01:04:11;;;;;;;2.47;1.10;;;;;;;23.11;49.54;101769.09;16118084;19;130858;-64
2023/09/06 01:09:34;;;;;;;3.15;1.13;;;;;;;23.11;49.39;101771.06;16116786;19;129994;-64
2023/09/06 01:14:57;;;;;;;2.00;1.10;;;;;;;23.11;49.48;101779.44;16116838;19;132182;-64
2023/09/06 01:20:31;;;;;;;2.03;1.13;;;;;;;23.11;49.53;101774.69;16110955;19;130970;-64
2023/09/06 01:25:54;;;;;;;2.85;0.90;;;;;;;23.09;49.52;101768.50;16112189;19;130436;-64
2023/09/06 01:31:16;;;;;;;2.03;1.02;;;;;;;23.07;49.53;101776.31;16113847;19;130800;-63
2023/09/06 01:36:39;;;;;;;1.75;0.90;;;;;;;23.08;49.66;101774.34;16113789;19;130734;-64
2023/09/06 01:42:02;;;;;;;1.27;1.00;;;;;;;23.05;49.58;101775.72;16112927;19;130783;-65
2023/09/06 01:47:25;;;;;;;3.60;1.33;;;;;;;23.05;49.57;101770.97;16113332;19;131405;-68
2023/09/06 01:52:47;;;;;;;1.30;1.10;;;;;;;23.04;49.76;101774.88;16113302;19;129780;-64
2023/09/06 01:58:10;;;;;;;3.95;1.40;;;;;;;23.04;49.46;101774.03;16111292;19;129990;-63
2023/09/06 02:03:33;;;;;;;2.50;1.20;;;;;;;23.03;49.10;101775.97;16111764;19;130407;-65
2023/09/06 02:08:56;;;;;;;1.30;0.88;;;;;;;23.03;49.60;101778.75;16112057;19;129763;-71
2023/09/06 02:14:18;;;;;;;2.78;1.27;;;;;;;23.02;49.33;101782.63;16111876;19;129712;-67
2023/09/06 02:19:40;;;;;;;2.03;1.00;;;;;;;23.02;49.39;101777.06;16117286;19;130176;-71
2023/09/06 02:25:02;;;;;;;1.90;1.10;;;;;;;23.02;49.28;101777.06;16110782;19;130656;-67
2023/09/06 02:30:24;;;;;;;2.05;1.17;;;;;;;23.01;49.34;101783.78;16112689;19;133338;-71
2023/09/06 02:35:49;;;;;;;2.03;1.10;;;;;;;23.00;49.68;101784.88;16113839;19;129798;-73
2023/09/06 02:41:11;;;;;;;1.23;0.87;;;;;;;23.00;49.41;101776.50;16108710;19;129684;-69
2023/09/06 02:46:34;;;;;;;1.67;1.08;;;;;;;23.00;49.44;101773.72;16110948;19;129803;-67
2023/09/06 02:51:56;;;;;;;1.80;0.82;;;;;;;22.99;49.29;101779.53;16103826;19;130593;-66
2023/09/06 02:57:18;;;;;;;2.72;1.02;;;;;;;22.98;49.23;101781.47;16110180;19;131782;-67
2023/09/06 03:02:41;;;;;;;0.85;0.75;;;;;;;22.97;49.23;101788.16;16113384;19;129810;-67
2023/09/06 03:08:06;;;;;;;0.88;0.70;;;;;;;22.96;49.37;101789.25;16115789;19;130875;-67
2023/09/06 03:13:28;;;;;;;1.35;0.77;;;;;;;22.95;49.52;101787.56;16127166;19;129865;-69
2023/09/06 03:18:52;;;;;;;2.47;1.25;;;;;;;22.95;49.51;101778.38;16118046;19;129930;-68
2023/09/06 03:24:14;;;;;;;1.17;0.65;;;;;;;22.94;49.31;101787.84;16121404;19;130431;-72
2023/09/06 03:29:36;;;;;;;2.63;1.02;;;;;;;22.95;49.30;101786.72;16124675;19;132426;-72
2023/09/06 03:34:58;;;;;;;1.70;1.10;;;;;;;22.92;49.24;101788.06;16125945;19;130177;-72
2023/09/06 03:40:35;;;;;;;0.90;0.80;;;;;;;22.92;49.21;101785.28;16126283;19;129827;-71
2023/09/06 03:45:58;;;;;;;3.47;1.20;;;;;;;22.91;49.59;101780.78;16125690;19;129377;-72
2023/09/06 03:51:20;;;;;;;1.17;0.90;;;;;;;22.90;49.33;101781.91;16132633;19;130314;-71
2023/09/06 03:56:43;;;;;;;1.00;0.90;;;;;;;22.89;49.51;101783.00;16126539;19;129553;-70
2023/09/06 04:02:13;;;;;;;2.92;0.77;;;;;;;22.88;49.27;101786.88;16127075;19;130829;-72
2023/09/06 04:07:38;;;;;;;1.67;1.00;;;;;;;22.88;49.36;101793.28;16123721;19;129807;-72
2023/09/06 04:13:00;;;;;;;1.13;1.00;;;;;;;22.87;49.17;101786.00;16126059;19;129888;-72
2023/09/06 04:18:22;;;;;;;1.30;1.00;;;;;;;22.87;49.37;101796.34;16122591;19;130756;-72
2023/09/06 04:23:44;;;;;;;0.75;0.75;;;;;;;22.84;49.40;101794.88;16124875;19;130434;-72
2023/09/06 04:29:06;;;;;;;1.45;1.10;;;;;;;22.86;49.47;101805.81;16124511;19;129819;-73
2023/09/06 04:34:28;;;;;;;1.17;0.82;;;;;;;22.84;49.65;101806.03;16125526;19;129526;-72
2023/09/06 04:39:53;;;;;;;1.50;0.98;;;;;;;22.84;49.48;101810.78;16124565;19;130331;-72
2023/09/06 04:45:15;;;;;;;2.10;0.80;;;;;;;22.84;49.26;101810.78;16122775;19;130779;-72
2023/09/06 04:50:39;;;;;;;1.23;0.80;;;;;;;22.83;49.27;101811.88;16121366;19;131372;-72
2023/09/06 04:56:04;;;;;;;1.52;1.00;;;;;;;22.82;49.23;101802.69;16120571;19;130734;-71
2023/09/06 06:02:07;;;;;;;7.75;2.00;;;;;;;22.62;47.78;101828.28;16097368;19;129846;-68
2023/09/06 06:07:32;;;;;;;3.78;1.90;;;;;;;22.64;47.70;101836.38;16113959;19;132293;-68
2023/09/06 06:12:54;;;;;;;4.35;1.67;;;;;;;22.65;47.73;101838.09;16115513;19;129668;-68
2023/09/06 06:18:17;;;;;;;4.47;1.30;;;;;;;22.80;47.32;101843.06;16114914;19;129570;-59
2023/09/06 06:23:43;;;;;;;2.67;1.48;;;;;;;22.89;46.89;101836.84;16119363;19;129329;-63
2023/09/06 06:29:05;;;;;;;8.23;1.90;;;;;;;23.03;47.11;101845.72;16120118;19;132212;-64
2023/09/06 06:34:28;;;;;;;7.90;1.90;;;;;;;23.13;46.84;101850.63;16117710;19;130239;-63
2023/09/06 06:39:50;;;;;;;6.85;1.90;;;;;;;23.23;46.61;101861.13;16114395;19;131173;-68
2023/09/06 06:45:12;;;;;;;3.72;1.85;;;;;;;23.31;46.52;101869.06;16130849;19;130370;-75
2023/09/06 06:50:35;;;;;;;2.70;1.90;;;;;;;23.39;46.38;101869.72;16129612;19;130464;-63
2023/09/06 06:55:57;;;;;;;3.13;1.80;;;;;;;23.47;46.67;101877.69;16131049;19;130592;-61
2023/09/06 07:01:20;;;;;;;6.32;1.88;;;;;;;23.53;46.48;101879.44;16130317;19;129688;-64
2023/09/06 07:06:42;;;;;;;9.98;1.77;;;;;;;23.60;46.35;101876.47;16132798;19;129410;-64
2023/09/06 07:12:04;;;;;;;2.80;1.80;;;;;;;23.64;46.35;101877.66;16125603;19;129635;-62
2023/09/06 07:17:26;;;;;;;5.10;1.83;;;;;;;23.70;46.31;101881.38;16130325;19;130608;-74
2023/09/06 07:22:48;;;;;;;3.40;1.70;;;;;;;23.74;46.30;101876.97;16129664;19;130610;-60
2023/09/06 07:28:10;;;;;;;4.03;1.77;;;;;;;23.77;46.06;101890.41;16122877;19;129861;-65
2023/09/06 07:33:33;;;;;;;3.20;1.80;;;;;;;23.79;46.10;101891.00;16124830;19;130807;-62
2023/09/06 07:38:56;;;;;;;5.13;1.90;;;;;;;23.83;45.94;101897.78;16125889;19;129579;-64
2023/09/06 07:44:19;;;;;;;3.85;1.92;;;;;;;23.86;46.21;101896.41;16130875;19;129935;-66
2023/09/06 07:49:41;;;;;;;2.50;1.90;;;;;;;23.90;46.04;101904.00;16122134;19;129312;-60
2023/09/06 07:55:06;;;;;;;3.78;2.17;;;;;;;23.94;45.94;101905.19;16121680;19;134140;-63
2023/09/06 08:00:30;;;;;;;5.15;2.40;;;;;;;23.95;45.61;101906.88;16122735;19;134209;-64
2023/09/06 08:05:52;;;;;;;3.25;1.80;;;;;;;23.97;45.69;101899.09;16129879;19;130953;-65
2023/09/06 08:11:18;;;;;;;3.70;1.90;;;;;;;24.02;45.69;101900.22;16137253;19;130266;-64
2023/09/06 08:16:40;;;;;;;6.85;1.90;;;;;;;24.02;45.79;101895.50;16118264;19;130517;-64
2023/09/06 08:22:02;;;;;;;5.35;2.03;;;;;;;24.05;45.78;101895.00;16120652;19;129444;-64
2023/09/06 08:27:24;;;;;;;4.88;1.60;;;;;;;24.07;45.89;101897.50;16117025;19;130755;-64
2023/09/06 08:32:48;;;;;;;5.18;2.05;;;;;;;24.04;46.06;101892.44;16117943;19;131920;-72
2023/09/06 08:38:10;;;;;;;2.47;1.60;;;;;;;23.93;46.11;101891.47;16122080;19;130868;-72
2023/09/06 08:43:37;;;;;;;3.70;1.87;;;;;;;23.82;46.45;101884.91;16120979;19;130701;-73
2023/09/06 08:49:05;;;;;;;5.43;2.23;;;;;;;23.75;46.41;101892.63;16114246;19;130587;-72
2023/09/06 08:54:27;;;;;;;2.30;1.63;;;;;;;23.66;46.45;101892.22;16123948;19;130855;-72
2023/09/06 08:59:50;;;;;;;7.18;1.90;;;;;;;23.61;46.89;101893.00;16126268;19;129569;-73
2023/09/06 09:05:14;;;;;;;5.80;1.90;;;;;;;23.58;46.91;101896.31;16122715;19;130617;-73
2023/09/06 09:10:39;;;;;;;3.28;1.63;;;;;;;23.53;47.04;101893.38;16125007;19;129757;-68
2023/09/06 09:16:07;;;;;;;4.55;1.63;;;;;;;23.51;47.40;101895.59;16123347;19;129212;-73
2023/09/06 09:21:29;;;;;;;3.70;1.67;;;;;;;23.48;47.05;101898.91;16123608;19;129813;-74
2023/09/06 09:26:52;;;;;;;5.07;1.95;;;;;;;23.44;47.33;101890.22;16124081;19;129661;-73
2023/09/06 09:32:14;;;;;;;5.40;1.50;;;;;;;23.43;47.33;101888.53;16124402;19;129715;-73
2023/09/06 09:37:41;;;;;;;2.40;1.60;;;;;;;23.42;47.39;101897.13;16121035;19;129172;-74
2023/09/06 09:43:06;;;;;;;2.83;1.80;;;;;;;23.39;47.30;101898.50;16123201;19;131103;-74
2023/09/06 09:48:30;;;;;;;3.25;1.98;;;;;;;23.38;47.40;101891.22;16122323;19;130038;-74
2023/09/06 09:53:52;;;;;;;1.98;1.58;;;;;;;23.37;47.49;101883.13;16121187;19;130335;-73
2023/09/06 09:59:16;;;;;;;3.20;1.70;;;;;;;23.34;47.67;101879.72;16123132;19;129058;-74
2023/09/06 10:04:44;;;;;;;3.25;1.50;;;;;;;23.33;47.38;101877.16;16120331;19;129622;-74
2023/09/06 10:10:10;;;;;;;3.20;1.85;;;;;;;23.33;47.87;101871.59;16117548;19;129635;-73
2023/09/06 10:15:33;;;;;;;3.95;1.73;;;;;;;23.32;47.49;101879.13;16116344;19;129822;-72
2023/09/06 10:20:56;;;;;;;4.57;1.83;;;;;;;23.30;47.60;101880.50;16119437;19;129844;-73
2023/09/06 10:26:29;;;;;;;4.30;1.75;;;;;;;23.31;47.37;101871.84;16117310;19;129306;-75
2023/09/06 10:31:53;;;;;;;2.95;1.95;;;;;;;23.31;47.58;101868.22;16120626;19;131185;-74
2023/09/06 10:37:15;;;;;;;2.80;1.60;;;;;;;23.30;47.87;101861.78;16124031;19;129236;-73
2023/09/06 10:42:38;;;;;;;4.15;1.90;;;;;;;23.29;47.47;101862.88;16120085;19;130538;-74
2023/09/06 10:48:11;;;;;;;3.15;1.52;;;;;;;23.29;47.78;101859.25;16119288;19;129661;-75
2023/09/06 10:53:37;;;;;;;3.05;1.65;;;;;;;23.28;47.81;101858.41;16124017;19;129570;-74
2023/09/06 10:59:03;;;;;;;2.88;1.77;;;;;;;23.27;47.85;101851.13;16121339;19;129595;-75
2023/09/06 11:04:26;;;;;;;1.90;1.50;;;;;;;23.27;47.92;101839.94;16126275;19;129735;-74
2023/09/06 11:09:50;;;;;;;4.70;1.73;;;;;;;23.27;47.99;101839.13;16120783;19;135463;-74
2023/09/06 11:15:12;;;;;;;3.25;1.77;;;;;;;23.26;48.43;101838.28;16112557;19;129814;-62
2023/09/06 11:20:35;;;;;;;4.15;1.63;;;;;;;23.35;48.55;101836.75;16122152;19;129395;-69
2023/09/06 11:26:00;;;;;;;2.90;1.52;;;;;;;23.44;48.75;101827.91;16126590;19;129819;-66
2023/09/06 11:31:25;;;;;;;6.13;1.90;;;;;;;23.45;48.78;101826.81;16201257;19;131876;-67
2023/09/06 11:36:48;;;;;;;2.53;1.70;;;;;;;23.44;48.65;101822.34;16205000;19;129380;-67
2023/09/06 11:42:16;;;;;;;5.35;1.77;;;;;;;23.42;48.83;101821.75;16202247;19;130704;-68
2023/09/06 11:47:39;;;;;;;2.85;1.83;;;;;;;23.39;48.75;101813.88;16207603;19;130034;-67
2023/09/06 11:53:04;;;;;;;2.17;1.50;;;;;;;23.38;48.70;101813.03;16205687;19;129675;-68
2023/09/06 11:58:29;;;;;;;3.15;1.50;;;;;;;23.37;48.48;101807.72;16207466;19;129893;-67
2023/09/06 12:03:58;;;;;;;2.35;1.60;;;;;;;23.35;48.87;101806.03;16206050;19;130163;-68
2023/09/06 12:09:21;;;;;;;4.88;1.70;;;;;;;23.37;48.63;101804.94;16208489;19;128209;-69
2023/09/06 12:14:44;;;;;;;3.60;1.52;;;;;;;23.36;48.42;101804.06;16201101;19;129292;-70
2023/09/06 12:20:10;;;;;;;3.53;1.40;;;;;;;23.35;48.80;101794.88;16192693;19;128857;-69
2023/09/06 12:25:32;;;;;;;2.00;1.35;;;;;;;23.35;48.53;101796.78;16127112;19;129967;-68
2023/09/06 12:30:58;;;;;;;2.58;1.77;;;;;;;23.34;48.54;101779.22;16126580;19;131028;-68
2023/09/06 12:36:19;;;;;;;2.00;1.70;;;;;;;23.35;48.14;101786.50;16131000;19;129489;-68
2023/09/06 12:41:42;;;;;;;2.55;1.50;;;;;;;23.34;48.40;101784.78;16118872;19;131242;-67
2023/09/06 12:47:06;;;;;;;2.70;1.15;;;;;;;23.34;48.46;101779.22;16121741;19;130341;-65
2023/09/06 12:52:29;;;;;;;2.33;1.40;;;;;;;23.39;48.61;101781.22;16123256;19;134121;-65
2023/09/06 12:57:51;;;;;;;2.72;1.60;;;;;;;23.42;48.37;101782.66;16120084;19;129736;-66
2023/09/06 13:03:13;;;;;;;1.55;1.20;;;;;;;23.43;48.48;101776.81;16114340;19;129956;-65
2023/09/06 13:08:36;;;;;;;4.38;1.48;;;;;;;23.43;48.72;101776.81;16117374;19;129843;-66
2023/09/06 13:13:59;;;;;;;3.13;1.33;;;;;;;23.46;48.43;101769.88;16112060;19;131512;-66
2023/09/06 13:19:22;;;;;;;1.65;1.10;;;;;;;23.46;48.52;101770.69;16120090;19;129666;-66
2023/09/06 13:24:44;;;;;;;2.25;1.50;;;;;;;23.47;48.35;101761.22;16123307;19;129404;-68
2023/09/06 13:30:07;;;;;;;3.08;1.30;;;;;;;23.47;48.18;101760.38;16123253;19;129539;-68
2023/09/06 13:35:29;;;;;;;1.40;1.20;;;;;;;23.48;48.38;101757.31;16124405;19;129601;-70
2023/09/06 13:40:51;;;;;;;2.72;1.25;;;;;;;23.50;48.22;101759.88;16124529;19;129476;-71
2023/09/06 13:46:13;;;;;;;2.97;1.27;;;;;;;23.48;48.48;101760.13;16126516;19;129530;-71
2023/09/06 13:51:36;;;;;;;1.95;1.20;;;;;;;23.49;48.20;101756.22;16122660;19;129580;-71
2023/09/06 13:56:58;;;;;;;1.63;1.10;;;;;;;23.51;48.11;101761.53;16123554;19;130510;-70
2023/09/06 14:02:20;;;;;;;1.30;1.20;;;;;;;23.50;48.15;101757.09;16118964;19;131488;-71
2023/09/06 14:07:42;;;;;;;1.65;1.35;;;;;;;23.50;48.39;101755.13;16116917;19;130376;-71
2023/09/06 14:13:04;;;;;;;3.42;1.20;;;;;;;23.51;48.12;101758.75;16121640;19;130037;-72
2023/09/06 14:18:29;;;;;;;2.25;1.50;;;;;;;23.51;48.15;101755.94;16118005;19;130191;-71
2023/09/06 14:23:52;;;;;;;1.50;1.20;;;;;;;23.51;48.06;101758.75;16123484;19;129059;-72
2023/09/06 14:29:15;;;;;;;1.92;1.40;;;;;;;23.52;47.92;101754.84;16129505;19;130754;-71
2023/09/06 14:34:37;;;;;;;2.03;1.27;;;;;;;23.51;48.08;101756.81;16131785;19;129616;-71
2023/09/06 14:39:59;;;;;;;1.50;1.30;;;;;;;23.53;47.86;101750.97;16134153;19;129437;-71
2023/09/06 14:45:21;;;;;;;2.08;1.60;;;;;;;23.53;47.86;101753.75;16130984;19;129832;-73
2023/09/06 14:50:43;;;;;;;1.50;1.35;;;;;;;23.53;47.85;101745.38;16123080;19;130316;-74
2023/09/06 14:56:06;;;;;;;2.08;1.33;;;;;;;23.54;47.77;101743.44;16124096;19;128958;-74
2023/09/06 15:01:27;;;;;;;1.90;1.30;;;;;;;23.55;48.22;101745.13;16131014;19;129149;-74
2023/09/06 15:06:53;;;;;;;2.53;1.40;;;;;;;23.55;47.97;101739.53;16148101;19;129034;-75
2023/09/06 15:12:20;;;;;;;2.13;1.58;;;;;;;23.54;47.73;101743.44;16150565;19;129121;-76
2023/09/06 15:17:42;;;;;;;2.67;1.63;;;;;;;23.54;47.72;101735.88;16161929;19;128898;-79
2023/09/06 15:23:04;;;;;;;7.70;2.45;;;;;;;23.55;48.59;101734.78;16158084;19;128736;-75
2023/09/06 15:28:26;;;;;;;8.00;2.90;;;;;;;23.66;48.60;101735.78;16152473;19;129001;-75
2023/09/06 15:33:49;;;;;;;7.15;3.15;;;;;;;23.75;48.67;101742.59;16156578;19;129294;-76
2023/09/06 15:39:11;;;;;;;8.35;2.80;;;;;;;23.82;48.90;101745.19;16159747;19;128956;-75
2023/09/06 15:44:33;;;;;;;13.88;3.17;;;;;;;23.86;48.55;101745.50;16155312;19;129350;-75
2023/09/06 15:49:55;;;;;;;6.35;2.70;;;;;;;23.91;48.88;101739.97;16158248;19;129455;-74
2023/09/06 15:55:17;;;;;;;8.68;3.60;;;;;;;23.93;48.58;101734.97;16156029;19;129332;-74
2023/09/06 16:00:39;;;;;;;18.05;2.60;;;;;;;23.95;48.68;101730.81;16157620;19;129628;-74
2023/09/06 16:06:01;;;;;;;10.57;3.08;;;;;;;23.97;48.55;101725.81;16141386;19;129973;-73
2023/09/06 16:11:23;;;;;;;11.18;2.80;;;;;;;23.99;48.67;101728.31;16143223;19;129688;-71
2023/09/06 16:16:45;;;;;;;9.75;2.80;;;;;;;24.00;48.72;101729.19;16150730;19;129039;-70
2023/09/06 16:22:07;;;;;;;10.45;2.90;;;;;;;24.02;48.43;101732.53;16152118;19;128913;-71
2023/09/06 16:27:30;;;;;;;10.52;3.17;;;;;;;24.03;48.72;101723.91;16150902;19;128889;-74
2023/09/06 16:32:52;;;;;;;10.07;2.70;;;;;;;24.02;48.70;101721.34;16136620;19;129251;-73
2023/09/06 16:38:14;;;;;;;5.75;2.92;;;;;;;23.97;48.52;101725.81;16142311;19;128542;-74
2023/09/06 16:43:37;;;;;;;12.27;2.60;;;;;;;23.93;48.60;101730.22;16139836;19;128467;-73
2023/09/06 16:48:59;;;;;;;11.65;2.42;;;;;;;23.89;48.58;101733.81;16136278;19;128458;-73
2023/09/06 16:54:21;;;;;;;8.82;2.42;;;;;;;23.85;48.52;101733.50;16141329;19;128916;-73
2023/09/06 16:59:43;;;;;;;8.90;2.47;;;;;;;23.83;48.48;101730.13;16137189;19;128624;-73
2023/09/06 17:05:06;;;;;;;10.07;2.63;;;;;;;23.80;48.66;101723.13;16134286;19;128769;-74
2023/09/06 17:10:29;;;;;;;5.15;2.30;;;;;;;23.78;48.31;101716.06;16135481;19;129992;-71
2023/09/06 17:15:51;;;;;;;8.48;2.42;;;;;;;23.76;48.59;101718.28;16137663;19;128904;-73
2023/09/06 17:21:13;;;;;;;7.70;2.60;;;;;;;23.75;48.65;101722.22;16136554;19;128930;-72
2023/09/06 17:26:36;;;;;;;6.45;2.28;;;;;;;23.73;48.63;101722.47;16131022;19;129097;-73
2023/09/06 17:32:04;;;;;;;5.63;2.50;;;;;;;23.71;48.55;101721.88;16134500;19;129298;-72
2023/09/06 17:37:26;;;;;;;6.40;2.22;;;;;;;23.71;48.51;101715.44;16137358;19;129430;-71
2023/09/06 17:42:48;;;;;;;3.50;1.88;;;;;;;23.68;48.73;101719.63;16134754;19;132354;-72
2023/09/06 17:48:10;;;;;;;4.97;1.95;;;;;;;23.68;48.71;101722.41;16130827;19;129458;-70
2023/09/06 17:53:35;;;;;;;4.25;2.13;;;;;;;23.66;48.59;101736.63;16129904;19;130338;-70
2023/09/06 17:58:58;;;;;;;3.58;2.03;;;;;;;23.65;48.59;101720.13;16121789;19;128929;-71
2023/09/06 18:04:24;;;;;;;4.18;2.22;;;;;;;23.65;48.43;101726.56;16122953;19;130950;-70
2023/09/06 18:09:48;;;;;;;5.15;2.28;;;;;;;23.64;48.61;101724.03;16119221;19;129368;-71
2023/09/06 18:15:14;;;;;;;5.57;2.45;;;;;;;23.63;48.48;101731.56;16120358;19;129756;-71
2023/09/06 18:20:38;;;;;;;8.13;2.72;;;;;;;23.61;48.46;101735.72;16122454;19;129742;-70
2023/09/06 18:26:00;;;;;;;5.50;2.63;;;;;;;23.62;48.56;101745.78;16117086;19;130701;-70
2023/09/06 18:31:22;;;;;;;4.45;2.15;;;;;;;23.61;48.26;101749.69;16113567;19;130978;-69
2023/09/06 18:36:44;;;;;;;4.50;2.20;;;;;;;23.61;48.47;101750.53;16114905;19;129516;-68
2023/09/06 18:42:08;;;;;;;6.70;2.15;;;;;;;23.60;48.53;101759.16;16128292;19;130701;-69
2023/09/06 18:47:30;;;;;;;4.47;2.10;;;;;;;23.59;48.27;101758.34;16130373;19;130301;-67
2023/09/06 18:52:53;;;;;;;5.88;2.40;;;;;;;23.58;48.44;101753.84;16128932;19;129546;-68
2023/09/06 18:58:18;;;;;;;3.50;2.22;;;;;;;23.58;48.18;101762.22;16131277;19;129538;-71
2023/09/06 19:03:41;;;;;;;7.18;2.22;;;;;;;23.57;48.41;101762.47;16130718;19;131836;-70
2023/09/06 19:09:08;;;;;;;6.13;2.22;;;;;;;23.57;48.57;101759.69;16129288;19;134232;-68
2023/09/06 19:14:30;;;;;;;3.55;2.15;;;;;;;23.57;48.41;101766.09;16129646;19;129376;-67
2023/09/06 19:19:53;;;;;;;5.18;2.20;;;;;;;23.54;48.52;101766.59;16132063;19;129642;-68
2023/09/06 19:25:15;;;;;;;6.40;2.15;;;;;;;23.54;48.23;101765.78;16130986;19;129654;-67
2023/09/06 19:30:37;;;;;;;5.15;2.58;;;;;;;23.53;48.59;101770.50;16128698;19;130411;-68
2023/09/06 19:35:59;;;;;;;6.10;2.10;;;;;;;23.54;48.68;101775.00;16129359;19;129709;-70
2023/09/06 19:41:20;;;;;;;3.40;1.95;;;;;;;23.52;48.22;101779.97;16126592;19;130387;-69
2023/09/06 19:46:42;;;;;;;4.80;2.08;;;;;;;23.53;48.38;101780.84;16125221;19;129814;-69
2023/09/06 19:52:04;;;;;;;4.20;2.38;;;;;;;23.50;48.52;101771.88;16124679;19;129647;-67
2023/09/06 19:57:29;;;;;;;3.03;2.10;;;;;;;23.51;48.44;101779.16;16122453;19;130525;-67
2023/09/06 20:02:52;;;;;;;2.63;2.00;;;;;;;23.50;48.55;101783.03;16111351;19;130672;-68
2023/09/06 20:08:15;;;;;;;4.47;1.92;;;;;;;23.50;48.46;101782.22;16116672;19;132405;-66
2023/09/06 20:13:37;;;;;;;8.18;3.20;;;;;;;23.46;47.78;101786.63;16120859;19;129427;-66
2023/09/06 20:19:04;;;;;;;13.52;3.70;;;;;;;23.47;47.81;101783.56;16124469;19;129966;-69
2023/09/06 20:24:26;;;;;;;31.00;4.80;;;;;;;23.47;47.88;101782.72;16123076;19;131070;-75
2023/09/06 20:29:48;;;;;;;19.10;3.90;;;;;;;23.48;47.88;101771.28;16122156;19;130218;-70
2023/09/06 20:35:09;;;;;;;20.02;3.90;;;;;;;23.50;47.94;101773.84;16123880;19;128982;-71
2023/09/06 20:40:32;;;;;;;16.50;4.22;;;;;;;23.51;47.54;101781.09;16124916;19;130305;-67
2023/09/06 20:45:54;;;;;;;23.60;4.47;;;;;;;23.53;47.82;101776.09;16124767;19;129671;-74
2023/09/06 20:51:16;;;;;;;15.25;4.03;;;;;;;23.56;47.77;101783.13;16124004;19;129160;-74
2023/09/06 20:56:39;;;;;;;18.13;3.90;;;;;;;23.57;47.19;101788.44;16124378;19;129561;-64
2023/09/06 21:02:01;;;;;;;17.35;4.25;;;;;;;23.57;47.39;101794.03;16116866;19;131561;-74
2023/09/06 21:07:22;;;;;;;9.95;3.83;;;;;;;23.58;47.48;101794.84;16122633;19;130384;-76
2023/09/06 21:12:44;;;;;;;15.48;4.10;;;;;;;23.57;47.05;101788.44;16127253;19;129274;-74
2023/09/06 21:18:06;;;;;;;11.18;4.10;;;;;;;23.54;47.13;101797.34;16124025;19;129407;-74
2023/09/06 21:23:30;;;;;;;8.55;3.80;;;;;;;23.54;47.04;101797.34;16123736;19;130098;-76
2023/09/06 21:28:55;;;;;;;8.93;3.92;;;;;;;23.53;47.05;101804.03;16118753;19;129639;-73
2023/09/06 21:34:21;;;;;;;6.90;3.60;;;;;;;23.51;47.29;101795.91;16122518;19;129336;-75
2023/09/06 21:39:43;;;;;;;7.10;3.72;;;;;;;23.52;47.19;101796.75;16123466;19;135192;-76
2023/09/06 21:45:06;;;;;;;10.07;3.60;;;;;;;23.51;47.15;101789.47;16119234;19;130162;-73
2023/09/06 21:50:28;;;;;;;9.52;4.32;;;;;;;23.52;47.26;101796.75;16120742;19;130630;-72
2023/09/06 21:55:50;;;;;;;6.72;3.50;;;;;;;23.50;47.21;101801.78;16119820;19;128956;-70
2023/09/06 22:01:11;;;;;;;9.63;3.33;;;;;;;23.51;47.40;101797.84;16117097;19;129249;-70
2023/09/06 22:06:34;;;;;;;6.57;3.30;;;;;;;23.49;47.62;101800.06;16116432;19;130428;-74
2023/09/06 22:11:56;;;;;;;10.50;3.45;;;;;;;23.48;47.33;101801.19;16110440;19;130827;-73
2023/09/06 22:17:18;;;;;;;4.78;3.13;;;;;;;23.48;47.38;101803.97;16116429;19;130314;-68
2023/09/06 22:22:40;;;;;;;7.28;3.50;;;;;;;23.47;47.13;101805.06;16114534;19;129916;-68
2023/09/06 22:28:08;;;;;;;7.57;3.60;;;;;;;23.47;47.73;101808.69;16115422;19;130000;-69
2023/09/06 22:33:30;;;;;;;6.88;3.63;;;;;;;23.46;47.33;101797.78;16113020;19;129616;-71
2023/09/06 22:38:52;;;;;;;6.53;3.20;;;;;;;23.44;47.84;101792.47;16111315;19;131472;-69
2023/09/06 22:44:14;;;;;;;5.20;3.25;;;;;;;23.44;47.38;101794.41;16115185;19;129589;-71
2023/09/06 22:49:36;;;;;;;5.22;3.47;;;;;;;23.44;47.47;101788.81;16112353;19;130030;-70
2023/09/06 22:54:59;;;;;;;4.10;3.00;;;;;;;23.43;47.52;101799.16;16113954;19;129996;-68
2023/09/06 23:00:21;;;;;;;10.85;3.30;;;;;;;23.43;47.47;101801.09;16110786;19;130522;-69
2023/09/06 23:05:43;;;;;;;7.82;3.10;;;;;;;23.43;47.55;101807.53;16111529;19;133561;-65
2023/09/06 23:11:06;;;;;;;9.85;3.55;;;;;;;23.42;47.53;101804.97;16117188;19;129846;-68
2023/09/06 23:16:29;;;;;;;5.78;3.15;;;;;;;23.41;47.80;101801.34;16118158;19;134411;-68
2023/09/06 23:21:54;;;;;;;8.02;3.40;;;;;;;23.42;47.65;101802.19;16111520;19;129932;-69
2023/09/06 23:27:23;;;;;;;7.57;3.15;;;;;;;23.41;47.58;101800.50;16119669;19;130152;-70
2023/09/06 23:32:49;;;;;;;6.20;3.60;;;;;;;23.40;47.44;101799.66;16125899;19;129586;-68
2023/09/06 23:38:11;;;;;;;5.75;3.25;;;;;;;23.40;47.51;101798.81;16124415;19;131693;-69
2023/09/06 23:43:34;;;;;;;5.28;3.35;;;;;;;23.39;47.59;101797.97;16128831;19;129177;-69
2023/09/06 23:48:58;;;;;;;4.43;3.13;;;;;;;23.38;47.68;101790.69;16125140;19;130366;-68
2023/09/06 23:54:20;;;;;;;6.95;3.10;;;;;;;23.38;47.52;101787.91;16119698;19;130836;-68
2023/09/06 23:59:57;;;;;;;7.38;3.15;;;;;;;23.37;47.65;101793.75;16117356;19;129701;-70
